• Join FlightAware (Why Join?)
  • Login
  • US Flag GB Flag 
17:39 EDT


 

Airport Tracker/Info


-or-


 

Live Flight TrackerFlight Track Log ✈ AWE3287 ✈ 08-May-2013 ✈ KPHL - KORF

Flight Track Log - Related Links

Times and Time Zones

All times are in EDT time to prevent confusion due to time zone crossing. See the AWE3287 flight status page for this flight to view local times or setup timezone preferences in your user account.

Time Position Orientation Groundspeed Altitude Reporting Facility
EDT Latitude Longitude Course Direction KTS MPH feet Rate Location/Type
15:40 39.8667 -75.2667 185° South 158 182 800  Level Philadelphia TRACON
15:41 39.8333 -75.3000 218° Southwest 177 204 2,400 1,980 Climbing Philadelphia TRACON
15:42 39.7833 -75.3500 218° Southwest 236 272 4,300 2,520 Climbing Philadelphia TRACON
15:43 39.6418 -75.2915 218° Southwest  Level FlightAware Approximate
15:44 39.5659 -75.3035 189° South  Level FlightAware Approximate
15:44 39.6403 -75.3572 182° South 247 284 10,900  Level Washington Center
15:45 39.4886 -75.3205 194° South  Level FlightAware Approximate
15:45 39.5528 -75.3386 171° South 282 325 11,900  Level Washington Center
15:46 39.4115 -75.3358 185° South  Level FlightAware Approximate
15:46 39.4611 -75.3361 179° South 317 365 12,700  Level Washington Center
15:47 39.3633 -75.3553 189° South 339 390 14,400 1,560 Climbing Washington Center
15:48 39.2611 -75.3717 187° South 363 418 15,900 720 Climbing Washington Center
15:49 39.1592 -75.3908 188° South 370 426 15,900  Level Washington Center
15:50 39.0569 -75.4044 186° South 370 426 15,900  Level Washington Center
15:51 38.9569 -75.4208 187° South 370 426 15,900  Level Washington Center
15:52 38.8653 -75.4369 188° South 358 412 15,900  Level Washington Center
15:53 38.7653 -75.4478 185° South 353 406 15,900  Level Washington Center
15:54 38.6714 -75.4642 188° South 353 406 15,900  Level Washington Center
15:55 38.5714 -75.4803 187° South 353 406 15,900  Level Washington Center
15:56 38.4733 -75.4936 186° South 353 406 15,900  Level Washington Center
15:57 38.3733 -75.5069 186° South 353 406 15,900  Level Washington Center
15:58 38.2669 -75.5547 199° South 363 418 15,900  Level Washington Center
15:59 38.1794 -75.6128 208° Southwest 363 418 16,000  Climbing Washington Center
16:00 38.0875 -75.6683 205° Southwest 363 418 16,000 -240 Level Washington Center
16:01 37.9978 -75.7289 208° Southwest 361 415 15,600 -900 Descending Washington Center
16:02 37.9122 -75.7864 208° Southwest 363 418 14,300 -1,380 Descending Washington Center
16:03 37.8308 -75.8311 203° Southwest 357 411 13,000 -1,500 Descending Washington Center
16:04 37.7431 -75.8833 205° Southwest 347 399 11,500 -1,440 Descending Washington Center
16:05 37.6597 -75.9356 206° Southwest 334 384 10,100 -900 Descending Washington Center
16:06 37.5803 -75.9561 192° South 282 325 9,800 -600 Descending Washington Center
16:07 37.5011 -75.9714 189° South 259 298 8,900 -900 Descending Washington Center
16:08 37.4258 -75.9867 189° South 268 308 8,000 -960 Descending Washington Center
16:09 37.3550 -75.9994 188° South 260 299 7,000 -1,140 Descending Washington Center
16:10 37.2819 -76.0094 186° South 269 310 5,800 -1,140 Descending Washington Center
16:11 37.2131 -76.0247 198° South 253 291 4,800 -960 Descending Washington Center
16:12 37.1969 -76.0513 198° South  Level FlightAware Approximate
16:12 37.1461 -76.0375 189° South 250 288 3,900  Level Washington Center
16:13 37.0731 -76.0500 188° South 250 288 3,200 -780 Descending Washington Center
16:14 37.0144 -76.0861 206° Southwest 228 262 2,400 -840 Descending Washington Center